createdAt,value
2022-09-06T00:01:33.729Z,22.71
2022-09-06T00:04:00.317Z,22.58
2022-09-06T00:06:26.843Z,22.55
2022-09-06T00:08:53.342Z,22.51
2022-09-06T00:11:20.069Z,22.62
2022-09-06T00:13:47.491Z,22.64
2022-09-06T00:16:28.388Z,22.46
2022-09-06T00:18:57.056Z,22.48
2022-09-06T00:21:27.159Z,22.45
2022-09-06T00:23:54.180Z,21.95
2022-09-06T00:26:22.392Z,21.72
2022-09-06T00:28:49.486Z,21.63
2022-09-06T00:31:22.926Z,21.60
2022-09-06T00:33:50.358Z,21.74
2022-09-06T00:36:17.982Z,21.63
2022-09-06T00:38:45.067Z,21.78
2022-09-06T00:41:13.544Z,21.94
2022-09-06T00:43:40.971Z,21.77
2022-09-06T00:46:10.632Z,21.79
2022-09-06T00:48:39.308Z,21.97
2022-09-06T00:51:09.456Z,22.09
2022-09-06T00:53:36.172Z,22.07
2022-09-06T00:56:03.257Z,22.07
2022-09-06T00:58:29.769Z,21.98
2022-09-06T01:00:56.938Z,21.83
2022-09-06T01:03:25.047Z,21.91
2022-09-06T01:05:57.379Z,21.95
2022-09-06T01:08:51.141Z,22.03
2022-09-06T01:11:40.972Z,22.07
2022-09-06T01:14:16.902Z,21.70
2022-09-06T01:17:06.298Z,21.88
2022-09-06T01:22:33.399Z,21.88
2022-09-06T01:25:21.823Z,21.92
2022-09-06T01:28:11.521Z,21.82
2022-09-06T01:30:45.346Z,21.78
2022-09-06T01:33:19.634Z,21.73
2022-09-06T01:35:58.115Z,21.60
2022-09-06T01:38:24.897Z,21.24
2022-09-06T01:40:51.416Z,21.44
2022-09-06T01:43:27.328Z,21.29
2022-09-06T01:46:05.645Z,20.99
2022-09-06T01:48:53.058Z,21.09
2022-09-06T01:51:28.448Z,21.26
2022-09-06T01:54:05.315Z,21.28
2022-09-06T01:56:52.450Z,21.06
2022-09-06T01:59:39.296Z,21.30
2022-09-06T02:02:25.609Z,21.38
2022-09-06T02:05:15.932Z,21.48
2022-09-06T02:07:44.668Z,21.31
2022-09-06T02:10:18.478Z,21.32
2022-09-06T02:12:48.294Z,21.33
2022-09-06T02:15:19.640Z,21.38
2022-09-06T02:17:57.984Z,21.41
2022-09-06T02:20:30.738Z,21.38
2022-09-06T02:23:01.635Z,21.38
2022-09-06T02:25:45.256Z,21.32
2022-09-06T02:28:11.931Z,21.23
2022-09-06T02:30:44.569Z,21.01
2022-09-06T02:33:18.125Z,21.11
2022-09-06T02:35:47.432Z,20.81
2022-09-06T02:38:14.440Z,20.94
2022-09-06T02:40:42.954Z,20.97
2022-09-06T02:43:09.471Z,20.96
2022-09-06T02:45:36.026Z,21.04
2022-09-06T02:48:02.739Z,21.05
2022-09-06T02:50:29.223Z,21.00
2022-09-06T02:53:10.133Z,21.02
2022-09-06T02:55:37.737Z,21.03
2022-09-06T02:58:06.512Z,20.96
2022-09-06T03:00:33.460Z,20.91
2022-09-06T03:03:00.062Z,20.90
2022-09-06T03:05:27.733Z,20.80
2022-09-06T03:07:54.696Z,20.80
2022-09-06T03:10:22.395Z,20.81
2022-09-06T03:12:49.066Z,20.79
2022-09-06T03:15:16.531Z,20.77
2022-09-06T03:17:43.620Z,20.71
2022-09-06T03:20:11.569Z,20.73
2022-09-06T03:22:39.335Z,20.65
2022-09-06T03:25:10.275Z,20.77
2022-09-06T03:27:37.207Z,20.68
2022-09-06T03:30:05.968Z,20.74
2022-09-06T03:32:32.864Z,20.63
2022-09-06T03:34:59.636Z,20.62
2022-09-06T03:37:26.443Z,20.52
2022-09-06T03:39:53.079Z,20.53
2022-09-06T03:42:19.652Z,20.41
2022-09-06T03:44:46.205Z,20.47
2022-09-06T03:47:13.142Z,20.42
2022-09-06T03:49:41.223Z,20.41
2022-09-06T03:52:07.750Z,20.40
2022-09-06T03:54:34.351Z,20.38
2022-09-06T03:57:00.863Z,20.29
2022-09-06T03:59:27.353Z,20.27
2022-09-06T04:01:53.913Z,20.24
2022-09-06T04:04:20.473Z,20.27
2022-09-06T04:06:47.020Z,20.20
2022-09-06T04:09:13.535Z,20.11
2022-09-06T04:11:42.142Z,20.12
2022-09-06T04:14:10.430Z,20.16
2022-09-06T04:16:36.997Z,20.07
2022-09-06T04:19:04.469Z,20.06
2022-09-06T04:21:31.322Z,20.10
2022-09-06T04:23:57.852Z,20.07
2022-09-06T04:26:24.498Z,19.92
2022-09-06T04:28:50.981Z,19.95
2022-09-06T04:31:17.492Z,19.96
2022-09-06T04:33:43.985Z,19.88
2022-09-06T04:36:11.531Z,19.89
2022-09-06T04:38:40.739Z,19.91
2022-09-06T04:41:08.409Z,19.85
2022-09-06T04:43:35.188Z,19.87
2022-09-06T04:46:11.373Z,19.78
2022-09-06T04:48:37.903Z,19.74
2022-09-06T04:51:04.531Z,19.75
2022-09-06T04:53:31.025Z,19.76
2022-09-06T04:55:58.733Z,19.68
2022-09-06T04:58:25.558Z,19.65
2022-09-06T05:00:52.184Z,19.71
2022-09-06T05:03:18.742Z,19.65
2022-09-06T05:05:45.247Z,19.57
2022-09-06T05:08:11.943Z,19.52
2022-09-06T05:10:38.460Z,19.50
2022-09-06T05:13:04.960Z,19.51
2022-09-06T05:15:31.776Z,19.49
2022-09-06T05:18:03.824Z,19.44
2022-09-06T05:20:31.104Z,19.39
2022-09-06T05:22:57.632Z,19.42
2022-09-06T05:25:24.202Z,19.37
2022-09-06T05:27:50.818Z,19.38
2022-09-06T05:30:18.310Z,19.39
2022-09-06T05:32:44.897Z,19.41
2022-09-06T05:35:11.395Z,19.43
2022-09-06T05:37:37.897Z,19.36
2022-09-06T05:40:04.749Z,19.40
2022-09-06T05:42:31.302Z,19.39
2022-09-06T05:44:58.034Z,19.41
2022-09-06T05:47:24.600Z,19.30
2022-09-06T05:49:51.999Z,19.25
2022-09-06T05:52:19.763Z,19.28
2022-09-06T05:54:46.264Z,19.29
2022-09-06T05:57:12.793Z,19.26
2022-09-06T05:59:39.308Z,19.31
2022-09-06T06:02:07.530Z,19.32
2022-09-06T06:04:34.410Z,19.28
2022-09-06T06:07:01.539Z,19.37
2022-09-06T06:09:28.103Z,19.30
2022-09-06T06:11:54.593Z,19.31
2022-09-06T06:14:21.124Z,19.38
2022-09-06T06:16:47.677Z,19.46
2022-09-06T06:19:15.294Z,19.47
2022-09-06T06:21:43.564Z,19.50
2022-09-06T06:24:10.187Z,19.52
2022-09-06T06:26:37.355Z,19.50
2022-09-06T06:29:05.965Z,19.38
2022-09-06T06:31:33.737Z,19.47
2022-09-06T06:34:03.091Z,19.47
2022-09-06T06:36:31.529Z,19.58
2022-09-06T06:38:58.434Z,19.47
2022-09-06T06:41:27.202Z,19.34
2022-09-06T06:43:58.268Z,19.56
2022-09-06T06:46:27.163Z,19.57
2022-09-06T06:48:56.785Z,19.62
2022-09-06T06:51:29.131Z,19.57
2022-09-06T06:53:58.559Z,19.71
2022-09-06T06:56:34.210Z,19.68
2022-09-06T06:59:04.025Z,19.66
2022-09-06T07:01:32.967Z,19.76
2022-09-06T07:04:00.162Z,19.82
2022-09-06T07:09:18.812Z,19.87
2022-09-06T07:11:46.355Z,19.83
2022-09-06T07:14:12.853Z,19.88
2022-09-06T07:16:39.525Z,19.88
2022-09-06T07:19:06.437Z,19.91
2022-09-06T07:26:36.265Z,19.90
2022-09-06T07:29:04.551Z,20.01
2022-09-06T07:34:19.273Z,20.12
2022-09-06T07:36:45.827Z,20.12
2022-09-06T07:39:12.347Z,20.14
2022-09-06T07:41:38.921Z,20.17
2022-09-06T07:44:05.443Z,20.18
2022-09-06T07:46:32.015Z,20.19
2022-09-06T07:48:58.623Z,20.27
2022-09-06T07:51:25.243Z,20.31
2022-09-06T07:54:07.080Z,20.39
2022-09-06T07:56:40.149Z,20.41
2022-09-06T07:59:06.865Z,20.49
2022-09-06T08:01:38.568Z,20.55
2022-09-06T08:04:10.166Z,20.60
2022-09-06T08:09:25.768Z,20.70
2022-09-06T08:11:52.728Z,20.77
2022-09-06T08:14:19.881Z,20.87
2022-09-06T08:16:46.458Z,20.95
2022-09-06T08:19:12.982Z,21.01
2022-09-06T08:21:39.798Z,21.08
2022-09-06T08:24:09.556Z,21.12
2022-09-06T08:26:40.303Z,21.20
2022-09-06T08:29:08.826Z,21.21
2022-09-06T08:31:38.423Z,21.25
2022-09-06T08:34:05.103Z,21.37
2022-09-06T08:36:32.919Z,21.42
2022-09-06T08:39:01.108Z,21.44
2022-09-06T08:41:30.899Z,21.49
2022-09-06T08:46:57.403Z,21.63
2022-09-06T08:49:27.030Z,21.68
2022-09-06T08:52:41.770Z,21.79
2022-09-06T08:55:38.789Z,21.88
2022-09-06T08:58:24.295Z,21.93
2022-09-06T09:01:00.749Z,21.98
2022-09-06T09:03:39.000Z,22.10
2022-09-06T09:06:07.694Z,22.17
2022-09-06T09:08:46.332Z,22.18
2022-09-06T09:11:18.534Z,22.29
2022-09-06T09:13:59.506Z,22.40
2022-09-06T09:16:26.460Z,22.40
2022-09-06T09:18:57.251Z,22.53
2022-09-06T09:21:30.197Z,22.60
2022-09-06T09:24:01.847Z,22.64
2022-09-06T09:26:41.216Z,22.73
2022-09-06T09:29:10.759Z,22.77
2022-09-06T09:31:42.862Z,22.78
2022-09-06T09:34:14.398Z,22.78
2022-09-06T09:36:41.044Z,22.83
2022-09-06T09:39:11.874Z,22.95
2022-09-06T09:41:42.937Z,23.01
2022-09-06T09:44:16.235Z,23.05
2022-09-06T09:46:42.955Z,23.19
2022-09-06T09:49:21.657Z,23.21
2022-09-06T09:52:12.632Z,23.34
2022-09-06T09:54:42.414Z,23.40
2022-09-06T09:57:17.540Z,23.41
2022-09-06T09:59:47.711Z,23.45
2022-09-06T10:02:28.303Z,23.56
2022-09-06T10:05:04.091Z,23.59
2022-09-06T10:07:32.551Z,23.68
2022-09-06T10:10:10.708Z,23.78
2022-09-06T10:12:39.706Z,23.89
2022-09-06T10:15:08.945Z,23.89
2022-09-06T10:17:53.360Z,24.01
2022-09-06T10:20:24.195Z,24.01
2022-09-06T10:23:01.570Z,24.12
2022-09-06T10:25:43.971Z,24.27
2022-09-06T10:28:45.959Z,24.38
2022-09-06T10:31:36.534Z,24.38
2022-09-06T10:34:08.892Z,24.42
2022-09-06T10:36:39.181Z,24.48
2022-09-06T10:39:30.183Z,24.55
2022-09-06T10:42:05.741Z,24.63
2022-09-06T10:44:53.986Z,24.75
2022-09-06T10:47:23.258Z,24.73
2022-09-06T10:49:56.096Z,24.83
2022-09-06T10:52:28.307Z,24.81
2022-09-06T10:55:02.142Z,24.82
2022-09-06T11:00:47.248Z,24.98
2022-09-06T11:06:20.349Z,24.92
2022-09-06T11:09:09.678Z,24.94
2022-09-06T11:12:03.526Z,25.12
2022-09-06T11:14:30.277Z,25.13
2022-09-06T11:17:08.708Z,25.24
2022-09-06T11:19:54.457Z,25.46
2022-09-06T11:22:38.464Z,25.37
2022-09-06T11:25:10.862Z,25.45
2022-09-06T11:27:54.957Z,25.58
2022-09-06T11:30:25.563Z,25.63
2022-09-06T11:33:22.729Z,25.66
2022-09-06T11:35:49.599Z,25.79
2022-09-06T11:38:16.021Z,25.86
2022-09-06T11:40:46.039Z,25.91
2022-09-06T11:43:35.730Z,26.06
2022-09-06T11:46:02.262Z,26.03
2022-09-06T11:48:36.413Z,26.12
2022-09-06T11:51:10.654Z,26.25
2022-09-06T11:53:49.272Z,26.34
2022-09-06T11:56:31.216Z,26.40
2022-09-06T11:59:06.422Z,26.51
2022-09-06T12:01:36.671Z,26.56
2022-09-06T12:04:06.691Z,26.59
2022-09-06T12:06:39.769Z,26.67
2022-09-06T12:09:27.652Z,26.78
2022-09-06T12:11:56.378Z,26.86
2022-09-06T12:14:39.438Z,26.79
2022-09-06T12:17:07.096Z,27.08
2022-09-06T12:19:52.204Z,27.06
2022-09-06T12:22:27.901Z,27.13
2022-09-06T12:24:59.788Z,27.21
2022-09-06T12:27:33.217Z,27.27
2022-09-06T12:30:11.709Z,27.31
2022-09-06T12:32:42.504Z,27.33
2022-09-06T12:38:18.408Z,27.53
2022-09-06T12:40:47.935Z,27.64
2022-09-06T12:43:17.406Z,27.68
2022-09-06T12:45:46.337Z,27.70
2022-09-06T12:48:59.217Z,27.94
2022-09-06T12:51:26.185Z,27.84
2022-09-06T12:53:54.061Z,28.02
2022-09-06T12:56:22.130Z,27.93
2022-09-06T12:58:48.802Z,27.94
2022-09-06T13:01:29.780Z,28.10
2022-09-06T13:04:03.209Z,28.18
2022-09-06T13:06:32.907Z,27.99
2022-09-06T13:09:00.447Z,28.22
2022-09-06T13:11:37.459Z,28.28
2022-09-06T13:14:14.506Z,28.31
2022-09-06T13:16:48.170Z,28.49
2022-09-06T13:19:17.552Z,28.55
2022-09-06T13:21:46.248Z,28.74
2022-09-06T13:24:37.487Z,28.68
2022-09-06T13:27:22.935Z,28.89
2022-09-06T13:29:57.964Z,28.87
2022-09-06T13:32:26.618Z,28.85
2022-09-06T13:34:56.878Z,29.01
2022-09-06T13:37:26.521Z,28.99
2022-09-06T13:39:53.441Z,29.04
2022-09-06T13:42:35.811Z,29.32
2022-09-06T13:45:27.217Z,29.49
2022-09-06T13:48:03.383Z,29.48
2022-09-06T13:50:41.173Z,29.55
2022-09-06T13:53:07.695Z,29.70
2022-09-06T13:55:34.500Z,29.83
2022-09-06T13:58:00.981Z,29.64
2022-09-06T14:00:28.085Z,29.72
2022-09-06T14:02:55.592Z,29.85
2022-09-06T14:05:22.312Z,30.03
2022-09-06T14:07:48.811Z,29.88
2022-09-06T14:10:15.434Z,29.99
2022-09-06T14:12:41.992Z,29.90
2022-09-06T14:15:09.871Z,29.97
2022-09-06T14:17:36.513Z,30.05
2022-09-06T14:20:03.541Z,30.04
2022-09-06T14:22:30.235Z,29.98
2022-09-06T14:24:56.747Z,29.94
2022-09-06T14:27:23.715Z,30.28
2022-09-06T14:29:50.356Z,30.26
2022-09-06T14:32:21.841Z,30.28
2022-09-06T14:34:48.981Z,29.96
2022-09-06T14:37:15.535Z,30.02
2022-09-06T14:39:42.129Z,30.24
2022-09-06T14:42:08.984Z,30.42
2022-09-06T14:44:35.526Z,30.37
2022-09-06T14:47:02.136Z,30.28
2022-09-06T14:49:28.672Z,30.47
2022-09-06T14:51:56.344Z,30.81
2022-09-06T14:54:27.283Z,30.60
2022-09-06T14:56:55.950Z,30.79
2022-09-06T14:59:22.451Z,30.63
2022-09-06T15:01:49.053Z,30.87
2022-09-06T15:04:15.668Z,30.72
2022-09-06T15:07:00.920Z,30.58
2022-09-06T15:09:27.729Z,30.63
2022-09-06T15:11:54.366Z,30.77
2022-09-06T15:14:26.315Z,30.96
2022-09-06T15:16:56.631Z,31.08
2022-09-06T15:19:28.884Z,31.47
2022-09-06T15:21:57.177Z,31.31
2022-09-06T15:24:23.752Z,31.18
2022-09-06T15:26:50.333Z,31.07
2022-09-06T15:29:16.897Z,30.93
2022-09-06T15:31:43.403Z,30.88
2022-09-06T15:34:10.400Z,30.90
2022-09-06T15:36:37.601Z,30.82
2022-09-06T15:39:05.288Z,30.73
2022-09-06T15:41:35.561Z,30.88
2022-09-06T15:44:13.814Z,30.94
2022-09-06T15:46:50.966Z,30.93
2022-09-06T15:49:27.574Z,30.97
2022-09-06T15:51:55.348Z,30.92
2022-09-06T15:54:40.575Z,30.84
2022-09-06T15:57:07.930Z,30.76
2022-09-06T15:59:35.147Z,30.56
2022-09-06T16:02:01.989Z,30.55
2022-09-06T16:04:28.722Z,30.43
2022-09-06T16:06:56.680Z,30.38
2022-09-06T16:09:23.349Z,30.40
2022-09-06T16:11:49.909Z,30.27
2022-09-06T16:14:16.641Z,30.24
2022-09-06T16:16:43.821Z,30.14
2022-09-06T16:19:12.129Z,30.00
2022-09-06T16:21:40.266Z,29.99
2022-09-06T16:24:09.239Z,29.96
2022-09-06T16:26:38.284Z,29.90
2022-09-06T16:29:06.939Z,29.74
2022-09-06T16:31:39.317Z,29.75
2022-09-06T16:34:06.595Z,29.70
2022-09-06T16:36:33.103Z,29.71
2022-09-06T16:39:00.049Z,29.62
2022-09-06T16:41:42.591Z,29.59
2022-09-06T16:44:15.942Z,29.49
2022-09-06T16:46:43.792Z,29.43
2022-09-06T16:49:10.320Z,29.36
2022-09-06T16:51:36.853Z,29.39
2022-09-06T16:54:03.800Z,29.34
2022-09-06T16:56:33.426Z,29.20
2022-09-06T16:59:02.331Z,29.16
2022-09-06T17:01:31.190Z,29.31
2022-09-06T17:03:59.124Z,29.29
2022-09-06T17:06:25.688Z,29.19
2022-09-06T17:08:52.265Z,29.31
2022-09-06T17:11:20.505Z,29.25
2022-09-06T17:13:49.296Z,29.11
2022-09-06T17:16:35.175Z,29.10
2022-09-06T17:19:02.201Z,29.07
2022-09-06T17:21:29.737Z,29.01
2022-09-06T17:23:58.641Z,28.97
2022-09-06T17:26:25.160Z,28.93
2022-09-06T17:28:51.697Z,28.92
2022-09-06T17:31:25.056Z,28.78
2022-09-06T17:33:53.142Z,28.87
2022-09-06T17:36:25.518Z,28.77
2022-09-06T17:38:53.874Z,28.87
2022-09-06T17:41:27.307Z,28.87
2022-09-06T17:43:54.597Z,28.74
2022-09-06T17:46:28.959Z,28.67
2022-09-06T17:48:56.408Z,28.48
2022-09-06T17:51:24.421Z,28.52
2022-09-06T17:53:52.102Z,28.56
2022-09-06T17:56:19.519Z,28.66
2022-09-06T17:58:58.503Z,28.63
2022-09-06T18:01:26.741Z,28.63
2022-09-06T18:03:53.371Z,28.64
2022-09-06T18:06:24.718Z,28.69
2022-09-06T18:08:54.529Z,28.56
2022-09-06T18:11:26.914Z,28.35
2022-09-06T18:14:02.360Z,28.44
2022-09-06T18:16:31.392Z,28.37
2022-09-06T18:19:00.189Z,28.36
2022-09-06T18:21:29.085Z,28.20
2022-09-06T18:23:56.025Z,28.21
2022-09-06T18:26:23.009Z,27.99
2022-09-06T18:28:50.089Z,28.04
2022-09-06T18:31:19.342Z,28.06
2022-09-06T18:33:45.962Z,27.94
2022-09-06T18:36:15.441Z,27.99
2022-09-06T18:38:45.489Z,27.80
2022-09-06T18:41:33.582Z,27.71
2022-09-06T18:44:03.060Z,27.82
2022-09-06T18:46:31.749Z,27.76
2022-09-06T18:48:58.476Z,27.67
2022-09-06T18:51:25.863Z,27.64
2022-09-06T18:53:52.853Z,27.60
2022-09-06T18:56:20.101Z,27.57
2022-09-06T18:58:46.901Z,27.43
2022-09-06T19:01:17.876Z,27.46
2022-09-06T19:03:44.381Z,27.89
2022-09-06T19:06:16.556Z,27.53
2022-09-06T19:08:43.715Z,27.52
2022-09-06T19:11:12.521Z,27.43
2022-09-06T19:13:41.432Z,27.27
2022-09-06T19:16:09.693Z,27.25
2022-09-06T19:18:37.301Z,27.29
2022-09-06T19:21:06.501Z,27.35
2022-09-06T19:23:35.027Z,27.33
2022-09-06T19:26:04.608Z,27.30
2022-09-06T19:28:31.794Z,27.14
2022-09-06T19:30:58.653Z,27.27
2022-09-06T19:33:25.744Z,27.23
2022-09-06T19:36:10.504Z,27.21
2022-09-06T19:38:59.574Z,27.11
2022-09-06T19:41:25.413Z,27.25
2022-09-06T19:43:54.126Z,27.19
2022-09-06T19:46:21.291Z,27.09
2022-09-06T19:48:50.130Z,27.11
2022-09-06T19:51:18.430Z,27.24
2022-09-06T19:53:49.663Z,27.17
2022-09-06T19:56:18.370Z,27.05
2022-09-06T19:58:45.489Z,27.04
2022-09-06T20:01:17.810Z,26.99
2022-09-06T20:03:44.678Z,26.99
2022-09-06T20:06:12.155Z,26.88
2022-09-06T20:08:39.409Z,26.75
2022-09-06T20:11:07.837Z,26.72
2022-09-06T20:13:36.435Z,26.62
2022-09-06T20:16:07.490Z,26.50
2022-09-06T20:18:35.308Z,26.97
2022-09-06T20:21:02.400Z,26.67
2022-09-06T20:23:30.016Z,26.57
2022-09-06T20:26:05.262Z,26.52
2022-09-06T20:28:32.966Z,26.40
2022-09-06T20:31:02.194Z,26.47
2022-09-06T20:33:29.827Z,26.46
2022-09-06T20:35:57.350Z,26.43
2022-09-06T20:38:25.253Z,26.15
2022-09-06T20:41:08.260Z,26.31
2022-09-06T20:43:39.102Z,26.18
2022-09-06T20:46:17.379Z,26.35
2022-09-06T20:48:45.326Z,26.38
2022-09-06T20:51:19.031Z,26.13
2022-09-06T20:53:48.182Z,26.03
2022-09-06T20:56:20.768Z,26.23
2022-09-06T20:59:01.534Z,26.17
2022-09-06T21:01:34.627Z,25.98
2022-09-06T21:04:03.225Z,26.10
2022-09-06T21:06:33.623Z,26.02
2022-09-06T21:09:00.172Z,26.04
2022-09-06T21:11:26.808Z,25.96
2022-09-06T21:13:58.468Z,26.01
2022-09-06T21:16:28.107Z,25.88
2022-09-06T21:18:59.998Z,25.95
2022-09-06T21:21:27.854Z,25.84
2022-09-06T21:23:54.574Z,25.86
2022-09-06T21:26:22.244Z,25.93
2022-09-06T21:28:49.575Z,25.95
2022-09-06T21:31:19.710Z,25.70
2022-09-06T21:33:48.755Z,25.77
2022-09-06T21:36:17.491Z,25.79
2022-09-06T21:38:46.604Z,25.67
2022-09-06T21:41:14.716Z,25.77
2022-09-06T21:43:41.631Z,25.84
2022-09-06T21:46:12.990Z,25.62
2022-09-06T21:48:44.971Z,25.55
2022-09-06T21:51:14.099Z,25.62
2022-09-06T21:53:42.211Z,25.62
2022-09-06T21:56:08.915Z,25.55
2022-09-06T21:58:35.811Z,25.57
2022-09-06T22:01:03.674Z,25.44
2022-09-06T22:03:41.143Z,25.53
2022-09-06T22:06:09.840Z,25.25
2022-09-06T22:08:36.358Z,25.12
2022-09-06T22:11:18.257Z,24.72
2022-09-06T22:13:45.604Z,24.44
2022-09-06T22:16:13.530Z,24.08
2022-09-06T22:18:40.196Z,24.07
2022-09-06T22:21:12.287Z,23.59
2022-09-06T22:23:39.369Z,23.70
2022-09-06T22:26:08.577Z,23.72
2022-09-06T22:28:35.175Z,23.88
2022-09-06T22:31:02.027Z,23.80
2022-09-06T22:33:28.795Z,23.72
2022-09-06T22:35:55.371Z,23.63
2022-09-06T22:38:21.983Z,23.84
2022-09-06T22:40:48.666Z,23.69
2022-09-06T22:43:15.366Z,23.72
2022-09-06T22:45:49.826Z,23.46
2022-09-06T22:48:18.280Z,23.29
2022-09-06T22:50:45.030Z,22.86
2022-09-06T22:53:12.024Z,22.72
2022-09-06T22:55:38.774Z,22.43
2022-09-06T22:58:06.079Z,22.27
2022-09-06T23:00:35.965Z,22.27
2022-09-06T23:03:02.578Z,22.13
2022-09-06T23:05:30.864Z,21.89
2022-09-06T23:07:57.872Z,22.01
2022-09-06T23:10:24.379Z,21.84
2022-09-06T23:12:54.054Z,21.80
2022-09-06T23:15:20.607Z,21.64
2022-09-06T23:17:47.108Z,21.83
2022-09-06T23:20:14.143Z,21.76
2022-09-06T23:22:40.912Z,21.86
2022-09-06T23:25:08.622Z,21.74
2022-09-06T23:27:35.164Z,21.55
2022-09-06T23:30:03.298Z,21.45
2022-09-06T23:32:32.639Z,21.42
2022-09-06T23:34:59.280Z,21.47
2022-09-06T23:37:25.790Z,21.56
2022-09-06T23:39:52.576Z,21.68
2022-09-06T23:42:19.352Z,21.52
2022-09-06T23:44:45.862Z,21.52
2022-09-06T23:47:12.377Z,21.57
2022-09-06T23:49:38.879Z,21.33
2022-09-06T23:52:05.596Z,21.36
2022-09-06T23:54:32.097Z,21.15
2022-09-06T23:56:58.605Z,21.11
2022-09-06T23:59:25.109Z,21.13
